Terminal Aerodrome Forecast
Issued by NWS Twin Cities, MN

Home | Current Version | Previous Version | Text Only | Print | Product List | Glossary On
Versions: 1 2 3 4 5 6 7 8 9 10 11 12 13 14 15 16
563
FTUS43 KMPX 292320
TAFSTC
TAF
KSTC 292320Z 3000/3024 30015G20KT P6SM VCSH BKN035
     FM300100 30008KT P6SM BKN050
     FM301000 29010KT P6SM OVC025
     FM301500 30014G21KT P6SM VCSH OVC025=

USA.gov is the U.S. government's official web portal to all federal, state and local government web resources and services.